Main page
METAR-TAF:

METAR-TAF

Airports :

Pinto Martins – Fortaleza International Airport

Fortaleza, Ceará, Brazil

latitude: 03-47S, longitude: 038-32W, elevation: 25 m

Current weather observation

The report was made 44 minutes ago, at 16:00 UTC
Wind 11 kt from the East, varying between East/Northeast and Southeast
Temperature 31°C
Humidity 63%
Pressure 1010 hPa
Visibility 10 km or more
Few clouds at a height of 2600 ft
Few clouds at a height of 3000 ft, Towering cumulus.

METAR: SBFZ 211600Z 08011KT 060V130 9999 FEW026 FEW030TCU 31/23 Q1010

Time: 13:44 (16:44 UTC)

Forecast

The report was made 6 hours and 44 minutes ago, at 10:00 UTC
Forecast valid from 21 at 12 UTC to 22 at 12 UTC
Wind 11 kt from the East
Visibility 10 km or more
Scattered clouds at a height of 2000 ft

TAF: SBFZ 211000Z 2112/2212 10011KT 9999 SCT020 TX30/2116Z TN24/2203Z RMK PED

Weather observations and forecasts of more than 4000 airports (METAR and TAF reports).

The available stations are represented by yellow and red dots on the map.

Hover mouse over dot to see the name of the station.

Then click to see weather observations and forecasts.

To change the map : click on the green buttons with a black cross to zoom in, on the green button with a dash to zoom out, or on the green arrows for adjacent maps.


METAR-TAF: